createdAt,value
2019-04-04T00:00:01.791Z,3.80
2019-04-04T00:02:29.101Z,3.67
2019-04-04T00:04:57.807Z,3.90
2019-04-04T00:07:24.890Z,3.47
2019-04-04T00:09:51.791Z,3.63
2019-04-04T00:12:18.724Z,3.20
2019-04-04T00:14:48.794Z,3.87
2019-04-04T00:17:15.772Z,3.23
2019-04-04T00:19:42.728Z,3.77
2019-04-04T00:22:09.630Z,3.07
2019-04-04T00:24:39.351Z,2.93
2019-04-04T00:27:05.358Z,2.77
2019-04-04T00:29:32.332Z,2.70
2019-04-04T00:31:59.261Z,3.20
2019-04-04T00:34:28.118Z,2.90
2019-04-04T00:36:54.903Z,2.67
2019-04-04T00:39:21.889Z,2.40
2019-04-04T00:41:48.790Z,2.43
2019-04-04T00:44:15.635Z,2.33
2019-04-04T00:46:42.605Z,3.00
2019-04-04T00:49:09.439Z,3.63
2019-04-04T00:51:38.701Z,2.33
2019-04-04T00:54:06.382Z,2.77
2019-04-04T00:56:33.326Z,3.00
2019-04-04T00:59:00.155Z,2.70
2019-04-04T01:01:27.222Z,2.57
2019-04-04T01:03:54.155Z,2.50
2019-04-04T01:06:22.483Z,2.33
2019-04-04T01:08:49.457Z,2.90
2019-04-04T01:11:16.422Z,2.17
2019-04-04T01:13:43.304Z,2.37
2019-04-04T01:16:10.255Z,2.13
2019-04-04T01:18:37.603Z,2.00
2019-04-04T01:21:04.575Z,2.17
2019-04-04T01:23:31.522Z,2.30
2019-04-04T01:25:58.463Z,2.30
2019-04-04T01:28:25.358Z,2.03
2019-04-04T01:30:52.358Z,1.80
2019-04-04T01:33:19.978Z,2.10
2019-04-04T01:35:47.374Z,1.90
2019-04-04T01:38:14.350Z,2.10
2019-04-04T01:40:41.258Z,1.80
2019-04-04T01:43:09.363Z,1.70
2019-04-04T01:45:37.055Z,2.30
2019-04-04T01:48:04.040Z,1.80
2019-04-04T01:50:30.993Z,1.97
2019-04-04T01:52:59.268Z,2.13
2019-04-04T01:55:26.664Z,2.10
2019-04-04T01:57:53.572Z,1.93
2019-04-04T02:00:20.445Z,1.87
2019-04-04T02:02:47.419Z,2.10
2019-04-04T02:05:14.572Z,2.00
2019-04-04T02:07:41.471Z,2.17
2019-04-04T02:10:09.028Z,2.00
2019-04-04T02:12:38.570Z,2.20
2019-04-04T02:15:05.053Z,2.00
2019-04-04T02:17:31.959Z,2.00
2019-04-04T02:19:58.918Z,2.23
2019-04-04T02:22:25.957Z,2.90
2019-04-04T02:24:52.913Z,2.43
2019-04-04T02:27:19.869Z,2.00
2019-04-04T02:29:47.781Z,2.33
2019-04-04T02:32:16.259Z,3.47
2019-04-04T02:34:43.112Z,2.30
2019-04-04T02:37:10.016Z,1.87
2019-04-04T02:39:36.963Z,2.23
2019-04-04T02:42:05.287Z,2.03
2019-04-04T02:44:33.178Z,2.00
2019-04-04T02:47:00.236Z,1.63
2019-04-04T02:49:29.196Z,1.90
2019-04-04T02:51:55.913Z,2.30
2019-04-04T02:54:24.527Z,2.07
2019-04-04T02:56:51.539Z,1.80
2019-04-04T02:59:21.572Z,2.03
2019-04-04T03:01:47.090Z,1.80
2019-04-04T03:04:14.511Z,2.60
2019-04-04T03:06:41.522Z,1.90
2019-04-04T03:09:10.002Z,2.00
2019-04-04T03:11:37.068Z,1.53
2019-04-04T03:14:04.760Z,1.50
2019-04-04T03:16:31.697Z,1.60
2019-04-04T03:18:58.540Z,1.60
2019-04-04T03:21:25.445Z,1.70
2019-04-04T03:23:52.393Z,1.80
2019-04-04T03:26:20.486Z,1.77
2019-04-04T03:28:47.599Z,1.90
2019-04-04T03:31:14.432Z,1.43
2019-04-04T03:33:41.280Z,1.77
2019-04-04T03:36:08.140Z,2.17
2019-04-04T03:38:37.218Z,1.90
2019-04-04T03:41:04.131Z,1.70
2019-04-04T03:43:31.004Z,1.90
2019-04-04T03:46:00.585Z,1.50
2019-04-04T03:48:26.543Z,1.80
2019-04-04T03:50:56.703Z,2.00
2019-04-04T03:53:22.578Z,2.10
2019-04-04T03:55:49.424Z,2.00
2019-04-04T03:58:16.307Z,1.70
2019-04-04T04:00:43.123Z,2.20
2019-04-04T04:03:10.006Z,1.73
2019-04-04T04:05:40.644Z,1.57
2019-04-04T04:08:05.958Z,1.60
2019-04-04T04:10:33.849Z,1.83
2019-04-04T04:13:01.011Z,1.50
2019-04-04T04:15:30.371Z,1.90
2019-04-04T04:17:56.486Z,1.90
2019-04-04T04:20:23.332Z,2.00
2019-04-04T04:22:50.919Z,1.80
2019-04-04T04:25:18.541Z,1.73
2019-04-04T04:27:48.476Z,1.90
2019-04-04T04:30:14.042Z,1.70
2019-04-04T04:32:40.911Z,1.70
2019-04-04T04:35:08.999Z,1.57
2019-04-04T04:37:36.190Z,1.67
2019-04-04T04:40:03.105Z,1.70
2019-04-04T04:42:29.923Z,1.80
2019-04-04T04:44:56.738Z,1.90
2019-04-04T04:47:24.106Z,1.63
2019-04-04T04:49:51.174Z,1.53
2019-04-04T04:52:18.001Z,2.30
2019-04-04T04:54:44.830Z,1.70
2019-04-04T04:57:28.139Z,1.77
2019-04-04T04:59:40.308Z,1.93
2019-04-04T05:02:07.198Z,2.10
2019-04-04T05:04:34.019Z,1.80
2019-04-04T05:07:00.887Z,1.93
2019-04-04T05:09:27.744Z,2.20
2019-04-04T05:11:54.609Z,1.80
2019-04-04T05:14:21.447Z,1.57
2019-04-04T05:16:48.533Z,2.20
2019-04-04T05:19:17.027Z,2.40
2019-04-04T05:21:43.989Z,2.97
2019-04-04T05:24:10.865Z,2.50
2019-04-04T05:26:38.744Z,2.20
2019-04-04T05:29:05.916Z,2.30
2019-04-04T05:31:32.710Z,2.10
2019-04-04T05:33:59.802Z,2.23
2019-04-04T05:36:26.805Z,2.40
2019-04-04T05:38:53.677Z,2.60
2019-04-04T05:41:20.555Z,2.90
2019-04-04T05:43:47.413Z,2.33
2019-04-04T05:46:14.392Z,2.83
2019-04-04T05:48:41.352Z,2.40
2019-04-04T05:51:08.207Z,2.10
2019-04-04T05:53:36.001Z,2.37
2019-04-04T05:56:06.234Z,2.60
2019-04-04T05:58:32.401Z,2.13
2019-04-04T06:01:01.520Z,2.20
2019-04-04T06:03:28.374Z,2.20
2019-04-04T06:05:55.451Z,1.93
2019-04-04T06:08:22.286Z,2.13
2019-04-04T06:10:50.083Z,2.40
2019-04-04T06:13:17.608Z,2.50
2019-04-04T06:15:44.466Z,1.97
2019-04-04T06:18:12.007Z,2.07
2019-04-04T06:20:39.031Z,1.87
2019-04-04T06:23:05.864Z,2.40
2019-04-04T06:25:35.643Z,2.07
2019-04-04T06:28:01.357Z,2.77
2019-04-04T06:30:28.235Z,2.60
2019-04-04T06:32:55.080Z,3.13
2019-04-04T06:35:21.911Z,2.70
2019-04-04T06:37:49.146Z,2.47
2019-04-04T06:40:18.293Z,2.57
2019-04-04T06:42:45.145Z,2.50
2019-04-04T06:45:15.163Z,2.63
2019-04-04T06:47:40.667Z,2.40
2019-04-04T06:50:08.391Z,2.17
2019-04-04T06:52:35.430Z,2.30
2019-04-04T06:55:02.330Z,1.97
2019-04-04T06:57:29.148Z,3.63
2019-04-04T06:59:55.988Z,1.90
2019-04-04T07:02:24.039Z,2.30
2019-04-04T07:04:51.489Z,2.20
2019-04-04T07:07:18.322Z,6.67
2019-04-04T07:09:45.185Z,7.50
2019-04-04T07:12:21.151Z,9.30
2019-04-04T07:14:46.250Z,8.93
2019-04-04T07:17:09.574Z,8.73
2019-04-04T07:19:36.485Z,8.50
2019-04-04T07:22:03.342Z,8.60
2019-04-04T07:24:31.179Z,8.30
2019-04-04T07:26:58.720Z,8.93
2019-04-04T07:29:26.057Z,7.10
2019-04-04T07:31:53.008Z,8.73
2019-04-04T07:34:19.824Z,7.73
2019-04-04T07:36:46.687Z,8.63
2019-04-04T07:39:13.531Z,8.27
2019-04-04T07:41:41.873Z,7.23
2019-04-04T07:44:09.066Z,6.23
2019-04-04T07:46:35.941Z,6.70
2019-04-04T07:49:02.806Z,6.63
2019-04-04T07:51:30.127Z,7.17
2019-04-04T07:53:57.785Z,6.90
2019-04-04T07:56:24.677Z,5.90
2019-04-04T07:58:51.528Z,5.63
2019-04-04T08:01:18.414Z,7.03
2019-04-04T08:03:45.328Z,6.33
2019-04-04T08:06:12.172Z,7.43
2019-04-04T08:08:39.071Z,7.60
2019-04-04T08:11:05.923Z,6.80
2019-04-04T08:13:32.795Z,7.30
2019-04-04T08:15:59.639Z,7.83
2019-04-04T08:18:26.506Z,7.17
2019-04-04T08:20:53.369Z,7.60
2019-04-04T08:23:20.232Z,7.70
2019-04-04T08:25:47.105Z,8.13
2019-04-04T08:28:13.953Z,7.43
2019-04-04T08:30:40.825Z,7.67
2019-04-04T08:33:07.690Z,7.50
2019-04-04T08:35:34.591Z,7.87
2019-04-04T08:38:01.426Z,7.30
2019-04-04T08:40:28.290Z,7.23
2019-04-04T08:42:55.249Z,6.50
2019-04-04T08:45:22.131Z,6.20
2019-04-04T08:47:49.003Z,9.20
2019-04-04T08:50:15.850Z,7.43
2019-04-04T08:52:42.718Z,6.07
2019-04-04T08:55:09.572Z,7.10
2019-04-04T08:57:36.466Z,7.20
2019-04-04T09:00:03.679Z,7.87
2019-04-04T09:02:30.573Z,7.60
2019-04-04T09:04:57.413Z,7.13
2019-04-04T09:07:24.297Z,6.63
2019-04-04T09:09:51.215Z,8.07
2019-04-04T09:12:18.228Z,7.83
2019-04-04T09:14:45.060Z,7.40
2019-04-04T09:17:11.934Z,6.33
2019-04-04T09:19:38.800Z,7.90
2019-04-04T09:22:05.709Z,6.30
2019-04-04T09:24:32.555Z,5.73
2019-04-04T09:26:59.397Z,6.30
2019-04-04T09:29:26.275Z,5.57
2019-04-04T09:31:53.133Z,6.70
2019-04-04T09:34:20.096Z,6.90
2019-04-04T09:36:46.947Z,6.17
2019-04-04T09:39:13.798Z,5.37
2019-04-04T09:41:40.689Z,5.73
2019-04-04T09:44:07.544Z,6.50
2019-04-04T09:46:34.420Z,5.93
2019-04-04T09:49:01.247Z,5.97
2019-04-04T09:51:28.114Z,7.30
2019-04-04T09:53:55.082Z,7.03
2019-04-04T09:56:21.934Z,6.30
2019-04-04T09:58:48.790Z,5.37
2019-04-04T10:01:15.664Z,6.47
2019-04-04T10:03:42.479Z,5.57
2019-04-04T10:06:09.307Z,5.93
2019-04-04T10:08:38.712Z,6.13
2019-04-04T10:11:04.834Z,6.00
2019-04-04T10:13:31.709Z,6.40
2019-04-04T10:15:58.540Z,4.50
2019-04-04T10:18:25.403Z,4.10
2019-04-04T10:20:52.243Z,3.93
2019-04-04T10:23:19.170Z,3.87
2019-04-04T10:25:46.030Z,3.30
2019-04-04T10:28:12.839Z,3.67
2019-04-04T10:30:39.685Z,3.67
2019-04-04T10:33:06.516Z,3.37
2019-04-04T10:35:33.403Z,2.60
2019-04-04T10:38:00.300Z,2.90
2019-04-04T10:40:27.110Z,3.50
2019-04-04T10:42:54.081Z,2.87
2019-04-04T10:45:20.906Z,3.60
2019-04-04T10:47:47.755Z,2.90
2019-04-04T10:50:14.691Z,3.00
2019-04-04T10:52:41.554Z,3.50
2019-04-04T10:55:08.396Z,3.70
2019-04-04T10:57:35.692Z,3.03
2019-04-04T11:00:03.315Z,3.07
2019-04-04T11:02:30.703Z,4.43
2019-04-04T11:04:57.563Z,2.80
2019-04-04T11:07:24.370Z,3.43
2019-04-04T11:09:51.234Z,4.33
2019-04-04T11:12:18.062Z,4.27
2019-04-04T11:14:44.949Z,3.50
2019-04-04T11:17:11.933Z,3.20
2019-04-04T11:19:39.380Z,3.63
2019-04-04T11:22:06.305Z,3.43
2019-04-04T11:24:33.335Z,3.40
2019-04-04T11:27:00.337Z,3.20
2019-04-04T11:29:27.743Z,3.20
2019-04-04T11:31:54.818Z,3.70
2019-04-04T11:34:21.733Z,4.47
2019-04-04T11:36:48.649Z,4.40
2019-04-04T11:39:15.493Z,4.00
2019-04-04T11:41:42.314Z,3.17
2019-04-04T11:44:09.185Z,3.50
2019-04-04T11:46:36.066Z,3.43
2019-04-04T11:49:02.970Z,3.40
2019-04-04T11:51:30.309Z,4.07
2019-04-04T11:53:57.232Z,3.33
2019-04-04T11:56:24.127Z,4.50
2019-04-04T11:58:51.017Z,3.83
2019-04-04T12:01:18.257Z,3.13
2019-04-04T12:03:45.132Z,3.60
2019-04-04T12:06:11.959Z,3.80
2019-04-04T12:08:38.784Z,3.53
2019-04-04T12:11:05.640Z,3.80
2019-04-04T12:13:32.473Z,3.10
2019-04-04T12:15:59.340Z,3.00
2019-04-04T12:18:26.173Z,3.50
2019-04-04T12:20:52.979Z,3.73
2019-04-04T12:23:19.833Z,4.43
2019-04-04T12:25:46.692Z,3.00
2019-04-04T12:28:13.564Z,3.20
2019-04-04T12:30:40.427Z,3.50
2019-04-04T12:33:07.281Z,3.03
2019-04-04T12:35:34.155Z,2.93
2019-04-04T12:38:01.128Z,2.83
2019-04-04T12:40:28.062Z,3.40
2019-04-04T12:42:55.574Z,2.77
2019-04-04T12:45:23.625Z,2.47
2019-04-04T12:47:52.527Z,3.03
2019-04-04T12:50:19.456Z,3.17
2019-04-04T12:52:46.312Z,2.63
2019-04-04T12:55:13.139Z,3.40
2019-04-04T12:57:40.024Z,2.87
2019-04-04T13:00:06.943Z,4.07
2019-04-04T13:02:34.021Z,4.80
2019-04-04T13:05:00.966Z,3.00
2019-04-04T13:07:27.922Z,3.23
2019-04-04T13:09:54.780Z,4.80
2019-04-04T13:12:21.607Z,3.90
2019-04-04T13:14:48.429Z,3.40
2019-04-04T13:17:15.282Z,3.00
2019-04-04T13:19:43.173Z,2.93
2019-04-04T13:22:10.022Z,2.83
2019-04-04T13:24:36.833Z,3.20
2019-04-04T13:27:03.666Z,3.30
2019-04-04T13:29:30.517Z,3.20
2019-04-04T13:31:57.374Z,2.70
2019-04-04T13:34:24.227Z,4.30
2019-04-04T13:36:51.051Z,4.17
2019-04-04T13:39:17.909Z,3.37
2019-04-04T13:41:44.776Z,3.27
2019-04-04T13:44:11.622Z,2.53
2019-04-04T13:46:38.445Z,5.40
2019-04-04T13:49:05.371Z,2.47
2019-04-04T13:51:32.199Z,3.20
2019-04-04T13:53:59.050Z,4.00
2019-04-04T13:56:25.892Z,2.80
2019-04-04T13:58:52.744Z,3.30
2019-04-04T14:01:19.594Z,3.30
2019-04-04T14:03:46.456Z,2.97
2019-04-04T14:06:13.312Z,2.60
2019-04-04T14:08:40.203Z,3.23
2019-04-04T14:11:07.106Z,2.50
2019-04-04T14:13:33.976Z,3.00
2019-04-04T14:16:00.789Z,2.90
2019-04-04T14:18:39.132Z,2.40
2019-04-04T14:21:03.284Z,2.43
2019-04-04T14:23:24.912Z,2.60
2019-04-04T14:25:51.785Z,3.40
2019-04-04T14:28:18.726Z,2.70
2019-04-04T14:30:45.533Z,3.00
2019-04-04T14:33:12.629Z,2.70
2019-04-04T14:35:39.483Z,3.30
2019-04-04T14:38:06.373Z,2.67
2019-04-04T14:40:33.218Z,2.43
2019-04-04T14:43:00.044Z,2.47
2019-04-04T14:45:26.913Z,2.50
2019-04-04T14:47:53.710Z,2.40
2019-04-04T14:50:20.561Z,2.13
2019-04-04T14:52:49.241Z,2.40
2019-04-04T14:55:17.924Z,2.50
2019-04-04T14:57:44.790Z,2.57
2019-04-04T15:00:15.500Z,2.63
2019-04-04T15:02:41.323Z,2.20
2019-04-04T15:05:08.143Z,2.40
2019-04-04T15:07:35.000Z,2.40
2019-04-04T15:10:01.842Z,2.53
2019-04-04T15:12:28.831Z,2.50
2019-04-04T15:14:55.713Z,2.40
2019-04-04T15:17:22.527Z,2.23
2019-04-04T15:19:49.394Z,2.30
2019-04-04T15:22:16.218Z,2.50
2019-04-04T15:24:43.090Z,2.27
2019-04-04T15:27:09.964Z,2.33
2019-04-04T15:29:36.826Z,2.03
2019-04-04T15:32:03.650Z,2.00
2019-04-04T15:34:30.531Z,2.20
2019-04-04T15:36:57.376Z,2.93
2019-04-04T15:39:24.198Z,2.70
2019-04-04T15:41:51.070Z,2.47
2019-04-04T15:44:17.916Z,2.10
2019-04-04T15:46:44.747Z,2.20
2019-04-04T15:49:11.613Z,2.30
2019-04-04T15:51:38.447Z,2.40
2019-04-04T15:54:05.359Z,2.70
2019-04-04T15:56:32.186Z,3.00
2019-04-04T15:58:59.074Z,2.10
2019-04-04T16:01:25.941Z,2.27
2019-04-04T16:03:52.769Z,1.80
2019-04-04T16:06:19.631Z,2.40
2019-04-04T16:08:46.451Z,2.30
2019-04-04T16:11:13.271Z,2.20
2019-04-04T16:13:40.137Z,1.97
2019-04-04T16:16:06.982Z,2.03
2019-04-04T16:18:33.882Z,2.40
2019-04-04T16:21:00.731Z,1.97
2019-04-04T16:23:27.693Z,2.00
2019-04-04T16:25:54.777Z,2.13
2019-04-04T16:28:21.622Z,1.90
2019-04-04T16:30:48.499Z,2.20
2019-04-04T16:33:15.345Z,2.07
2019-04-04T16:35:42.331Z,2.00
2019-04-04T16:38:09.186Z,2.13
2019-04-04T16:40:35.994Z,2.17
2019-04-04T16:43:02.884Z,2.63
2019-04-04T16:45:29.698Z,2.30
2019-04-04T16:47:56.540Z,1.93
2019-04-04T16:50:23.375Z,1.93
2019-04-04T16:52:50.298Z,2.23
2019-04-04T16:55:17.129Z,2.17
2019-04-04T16:57:43.992Z,1.90
2019-04-04T17:00:10.909Z,2.10
2019-04-04T17:02:37.746Z,1.93
2019-04-04T17:05:04.763Z,2.53
2019-04-04T17:07:31.623Z,2.13
2019-04-04T17:09:58.487Z,2.10
2019-04-04T17:12:25.295Z,2.17
2019-04-04T17:14:52.350Z,2.23
2019-04-04T17:17:19.128Z,1.80
2019-04-04T17:19:46.020Z,2.20
2019-04-04T17:22:13.007Z,2.20
2019-04-04T17:24:42.141Z,2.20
2019-04-04T17:27:09.026Z,2.80
2019-04-04T17:29:36.074Z,2.30
2019-04-04T17:32:04.366Z,2.30
2019-04-04T17:34:32.041Z,2.37
2019-04-04T17:36:58.892Z,2.30
2019-04-04T17:39:26.210Z,2.20
2019-04-04T17:41:53.373Z,1.80
2019-04-04T17:44:20.407Z,2.03
2019-04-04T17:46:47.259Z,2.20
2019-04-04T17:49:14.694Z,2.07
2019-04-04T17:51:44.398Z,2.17
2019-04-04T17:54:11.256Z,2.47
2019-04-04T17:56:38.110Z,2.20
2019-04-04T17:59:08.843Z,2.00
2019-04-04T18:01:38.674Z,1.83
2019-04-04T18:04:05.593Z,2.90
2019-04-04T18:06:32.468Z,2.97
2019-04-04T18:09:00.666Z,2.63
2019-04-04T18:11:27.485Z,2.60
2019-04-04T18:13:54.326Z,2.10
2019-04-04T18:16:21.201Z,2.40
2019-04-04T18:18:48.018Z,2.80
2019-04-04T18:21:14.825Z,1.90
2019-04-04T18:23:41.674Z,2.03
2019-04-04T18:26:08.547Z,2.57
2019-04-04T18:28:35.369Z,2.60
2019-04-04T18:31:02.391Z,2.33
2019-04-04T18:33:29.644Z,2.70
2019-04-04T18:35:56.807Z,2.23
2019-04-04T18:38:23.925Z,2.67
2019-04-04T18:40:50.701Z,2.50
2019-04-04T18:43:17.546Z,2.30
2019-04-04T18:45:44.394Z,2.60
2019-04-04T18:48:11.225Z,2.00
2019-04-04T18:50:38.081Z,2.10
2019-04-04T18:53:04.930Z,1.90
2019-04-04T18:55:31.796Z,2.23
2019-04-04T18:57:58.678Z,2.00
2019-04-04T19:00:25.535Z,1.90
2019-04-04T19:02:52.351Z,2.60
2019-04-04T19:05:19.191Z,2.33
2019-04-04T19:07:46.059Z,2.20
2019-04-04T19:10:12.869Z,1.97
2019-04-04T19:12:39.752Z,2.00
2019-04-04T19:15:07.844Z,2.30
2019-04-04T19:17:34.920Z,2.37
2019-04-04T19:20:01.802Z,2.17
2019-04-04T19:22:28.829Z,2.13
2019-04-04T19:24:55.800Z,1.90
2019-04-04T19:27:22.671Z,2.10
2019-04-04T19:29:49.491Z,2.53
2019-04-04T19:32:16.351Z,2.20
2019-04-04T19:34:43.807Z,3.23
2019-04-04T19:37:10.831Z,2.53
2019-04-04T19:39:37.685Z,2.20
2019-04-04T19:42:05.066Z,3.30
2019-04-04T19:44:32.134Z,2.77
2019-04-04T19:46:58.985Z,2.47
2019-04-04T19:49:25.807Z,2.93
2019-04-04T19:51:52.666Z,2.17
2019-04-04T19:54:19.545Z,2.23
2019-04-04T19:56:46.415Z,1.97
2019-04-04T19:59:13.321Z,2.53
2019-04-04T20:01:40.113Z,2.17
2019-04-04T20:04:07.012Z,2.10
2019-04-04T20:06:33.821Z,2.40
2019-04-04T20:09:00.645Z,2.40
2019-04-04T20:11:27.617Z,2.20
2019-04-04T20:13:54.525Z,2.35
2019-04-04T20:16:21.417Z,2.77
2019-04-04T20:18:48.350Z,3.80
2019-04-04T20:22:03.175Z,2.40
2019-04-04T20:24:51.276Z,2.10
2019-04-04T20:27:55.009Z,2.10
2019-04-04T20:30:42.542Z,2.60
2019-04-04T20:33:43.572Z,2.17
2019-04-04T20:36:57.404Z,2.10
2019-04-04T20:40:24.958Z,2.57
2019-04-04T20:43:42.690Z,2.27
2019-04-04T20:53:17.363Z,2.20
2019-04-04T20:55:57.522Z,1.97
2019-04-04T21:02:03.219Z,2.17
2019-04-04T21:07:49.565Z,2.10
2019-04-04T21:10:37.066Z,2.40
2019-04-04T21:16:22.568Z,2.47
2019-04-04T21:19:09.889Z,2.20
2019-04-04T21:21:52.656Z,2.20
2019-04-04T21:24:59.782Z,2.17
2019-04-04T21:27:59.095Z,2.93
2019-04-04T21:30:48.734Z,2.33
2019-04-04T21:36:57.416Z,2.93
2019-04-04T21:39:50.432Z,3.37
2019-04-04T21:42:35.446Z,2.40
2019-04-04T21:45:46.112Z,2.87
2019-04-04T21:48:48.444Z,2.80
2019-04-04T21:51:46.322Z,2.83
2019-04-04T21:54:53.659Z,2.63
2019-04-04T21:57:55.104Z,2.53
2019-04-04T22:01:09.151Z,3.10
2019-04-04T22:04:05.209Z,2.47
2019-04-04T22:07:11.378Z,3.60
2019-04-04T22:10:26.162Z,2.80
2019-04-04T22:13:14.508Z,3.27
2019-04-04T22:16:31.017Z,2.77
2019-04-04T22:22:31.260Z,3.00
2019-04-04T22:28:39.101Z,2.93
2019-04-04T22:31:26.708Z,3.30
2019-04-04T22:34:25.265Z,3.57
2019-04-04T22:37:17.328Z,3.10
2019-04-04T22:40:29.692Z,3.50
2019-04-04T22:44:02.941Z,3.13
2019-04-04T22:54:35.372Z,2.80
2019-04-04T23:07:57.963Z,2.63
2019-04-04T23:10:14.025Z,3.10
2019-04-04T23:13:18.858Z,2.80
2019-04-04T23:16:32.403Z,3.00
2019-04-04T23:20:13.575Z,2.77
2019-04-04T23:36:48.642Z,2.40
2019-04-04T23:42:33.709Z,3.73
2019-04-04T23:45:01.601Z,3.23
2019-04-04T23:47:41.616Z,2.40
2019-04-04T23:49:58.096Z,3.07
2019-04-04T23:52:25.172Z,2.67
2019-04-04T23:54:52.370Z,2.70
2019-04-04T23:57:21.732Z,3.20
2019-04-04T23:59:48.861Z,2.50
